GILDA / G-ILDA 7700 Squawk Report (17th of April, 2018)

Time Lat Lon Altitude Heading Speed Vertical Rate
2018-04-17 17:48:16 GMT 50.888622 -0.763395 1,200 47 173 0
2018-04-17 17:48:02 GMT 50.874519 -0.790100 1,100
2018-04-17 17:47:53 GMT 50.876102 -0.795212 1,100
2018-04-17 17:47:38 GMT 50.881176 -0.774002 1,200
2018-04-17 17:47:28 GMT 50.884621 -0.764771 1,200
2018-04-17 17:47:20 GMT 50.888111 -0.761108 1,300
2018-04-17 17:47:13 GMT 50.897984 -0.765686 1,100
2018-04-17 17:47:04 GMT 50.896587 -0.759277 900
2018-04-17 17:46:54 GMT 50.890209 -0.745392 900
2018-04-17 17:46:37 GMT 50.885597 -0.728226 900
2018-04-17 17:46:28 GMT 50.881783 -0.721207 1,000
2018-04-17 17:46:23 GMT 50.874706 -0.711899 900
2018-04-17 17:46:10 GMT 50.865395 -0.695877 1,000
2018-04-17 17:46:04 GMT 50.859997 -0.695038 1,100
2018-04-17 17:45:54 GMT 50.855621 -0.688400 1,200
2018-04-17 17:45:38 GMT 50.835323 -0.679398 1,300
2018-04-17 17:45:34 GMT 50.831085 -0.678406 1,500
2018-04-17 17:45:23 GMT 50.826710 -0.675507 1,700
2018-04-17 17:45:09 GMT 50.809998 -0.691986 1,800
2018-04-17 17:45:02 GMT 50.808697 -0.695419 1,700
2018-04-17 17:44:52 GMT 50.812279 -0.707321 1,600
We lost coverage of the aircraft here for a total of 52 minutes
2018-04-17 16:53:21 GMT 50.838303 -0.766602 1,925 338 250 128
2018-04-17 16:53:09 GMT 50.830902 -0.761795 1,900 284 228 256
2018-04-17 16:52:55 GMT 50.819679 -0.750427 1,900 284 228 256
2018-04-17 16:52:41 GMT 50.796406 -0.742264 1,900 284 228 256
2018-04-17 16:52:29 GMT 50.791611 -0.740509 1,900 284 228 256
2018-04-17 16:52:14 GMT 50.760979 -0.736084 1,800 284 228 256
2018-04-17 16:52:08 GMT 50.748596 -0.742188 1,700 284 228 256
2018-04-17 16:50:57 GMT 50.737099 -0.811615 900 284 228 256
2018-04-17 16:50:32 GMT 50.746922 -0.846481 700 284 228 256
2018-04-17 16:50:23 GMT 50.754414 -0.873032 700 284 228 256
2018-04-17 16:50:15 GMT 50.756603 -0.881424 800 284 228 256
2018-04-17 16:50:07 GMT 50.758793 -0.888824 800 284 228 256
2018-04-17 16:49:43 GMT 50.768986 -0.932922 1,000 284 228 256
2018-04-17 16:49:35 GMT 50.770382 -0.951233 900 284 228 256
2018-04-17 16:49:14 GMT 50.776203 -0.997391 900 284 228 256
2018-04-17 16:49:04 GMT 50.776993 -1.009369 1,000 284 228 256
2018-04-17 16:48:56 GMT 50.778297 -1.020508 1,100 284 228 256
2018-04-17 16:48:38 GMT 50.802597 -1.028824 1,300 284 228 256
2018-04-17 16:48:15 GMT 50.836113 -1.011734 1,000 284 228 256
2018-04-17 16:47:50 GMT 50.837791 -0.970764 1,175 284 228 256
2018-04-17 16:47:43 GMT 50.836998 -0.962906 1,075 286 235 -128
2018-04-17 16:47:30 GMT 50.833694 -0.942993 1,100 281 226 512
2018-04-17 16:47:23 GMT 50.829922 -0.935135 1,000 281 226 512
2018-04-17 16:47:15 GMT 50.825314 -0.918579 1,100 281 226 512
2018-04-17 16:47:03 GMT 50.823685 -0.896072 925 282 216 192
2018-04-17 16:46:50 GMT 50.823219 -0.872421 1,000
2018-04-17 16:46:36 GMT 50.813583 -0.853882 900
2018-04-17 16:46:32 GMT 50.812511 -0.844498 900
We lost coverage of the aircraft here for a total of 75 minutes
2018-04-17 15:31:52 GMT 50.888210 -0.761929 500 257 225 64
2018-04-17 15:31:52 GMT 50.888210 -0.761929 1,200 257 225 64
2018-04-17 15:31:31 GMT 50.895187 -0.708389 1,500 285 200 64
2018-04-17 15:31:22 GMT 50.896400 -0.692520 1,600 285 200 64
2018-04-17 15:31:09 GMT 50.895702 -0.680923 1,800 285 200 64
2018-04-17 15:31:03 GMT 50.894909 -0.675201 1,900 285 200 64
2018-04-17 15:30:57 GMT 50.893002 -0.657578 2,025 285 200 64
2018-04-17 15:30:48 GMT 50.891094 -0.646286 2,050 288 198 320
2018-04-17 15:30:32 GMT 50.888905 -0.626297 2,000 291 214 512
2018-04-17 15:30:27 GMT 50.887508 -0.619278 2,000 291 214 512
2018-04-17 15:30:13 GMT 50.884899 -0.601120 2,000 310 265 1280
2018-04-17 15:30:07 GMT 50.884995 -0.589828 1,900 310 265 1280
2018-04-17 15:29:02 GMT 50.815819 -0.550766 1,000
2018-04-17 15:28:42 GMT 50.806183 -0.564575 1,000
2018-04-17 15:25:25 GMT 50.733189 -0.833969 800 284 203 -768
2018-04-17 15:25:02 GMT 50.741707 -0.866776 1,100 284 203 -768
2018-04-17 15:24:37 GMT 50.759724 -0.895081 1,200 284 203 -768
2018-04-17 15:22:58 GMT 50.827225 -0.864868 1,350 284 203 -768
2018-04-17 15:22:48 GMT 50.826477 -0.855103 1,500 286 197 -320
2018-04-17 15:22:40 GMT 50.823498 -0.843887 1,400
2018-04-17 15:22:25 GMT 50.819496 -0.821762 1,600
We lost coverage of the aircraft here for a total of 35 minutes
2018-04-17 14:47:28 GMT 50.765308 -0.763168 700
2018-04-17 14:44:47 GMT 50.867676 -0.697784 1,100 314 219 640
2018-04-17 14:44:47 GMT 50.867676 -0.697784 1,375 314 219 640
2018-04-17 14:44:21 GMT 50.848495 -0.665131 1,400 65 226 1344
2018-04-17 14:44:14 GMT 50.846916 -0.659332 1,500 65 226 1344
2018-04-17 14:44:05 GMT 50.840908 -0.641708 1,600 65 226 1344
2018-04-17 14:43:54 GMT 50.833881 -0.615616 1,800 65 226 1344
2018-04-17 14:43:22 GMT 50.788818 -0.630417 2,200 65 226 1344
2018-04-17 14:43:15 GMT 50.784721 -0.639572 1,800 65 226 1344
2018-04-17 14:43:02 GMT 50.777412 -0.659103 1,800 42 179 256
2018-04-17 14:42:45 GMT 50.777084 -0.686493 1,300 42 179 256
2018-04-17 14:42:29 GMT 50.770802 -0.705338 1,200 42 179 256
2018-04-17 14:42:16 GMT 50.763306 -0.717010 2,100 42 179 256
2018-04-17 14:42:05 GMT 50.756184 -0.726013 1,900 63 140 320
2018-04-17 14:41:51 GMT 50.742218 -0.743027 1,200 63 140 320
2018-04-17 14:41:35 GMT 50.729881 -0.759506 900 63 140 320
2018-04-17 14:40:45 GMT 50.721317 -0.804977 800 126 223 -1024
2018-04-17 14:40:39 GMT 50.723412 -0.809784 1,075 126 223 -1024
2018-04-17 14:40:26 GMT 50.731884 -0.828629 900 232 144 1408
2018-04-17 14:40:23 GMT 50.735516 -0.832672 1,000 232 144 1408
2018-04-17 14:40:02 GMT 50.744919 -0.893631 1,300 232 144 1408
2018-04-17 14:39:42 GMT 50.761307 -0.913467 600 232 144 1408
2018-04-17 14:39:28 GMT 50.771313 -0.917130 700 232 144 1408
2018-04-17 14:39:20 GMT 50.780903 -0.925598 1,000 232 144 1408
2018-04-17 14:39:13 GMT 50.786304 -0.936432 1,875 232 144 1408
2018-04-17 14:38:55 GMT 50.792683 -0.925522 1,800
2018-04-17 14:38:48 GMT 50.803993 -0.921402 1,700
2018-04-17 14:38:38 GMT 50.806087 -0.908585 1,100
2018-04-17 14:38:25 GMT 50.815399 -0.893173 1,100
2018-04-17 14:38:19 GMT 50.816982 -0.882416 1,200
2018-04-17 14:38:06 GMT 50.817680 -0.866165 1,200
2018-04-17 14:37:56 GMT 50.818520 -0.854797 1,100
2018-04-17 14:37:49 GMT 50.818703 -0.842438 1,200
2018-04-17 14:37:36 GMT 50.819679 -0.827408 1,200
We lost coverage of the aircraft here for a total of 92 minutes
2018-04-17 13:06:02 GMT 50.870628 -0.780110 1,500 151 214 -1020
2018-04-17 13:05:46 GMT 50.884804 -0.785809 1,900 203 201 -900
2018-04-17 13:05:35 GMT 50.893913 -0.776633 1,900 226 206 -960
2018-04-17 13:05:16 GMT 50.906448 -0.755806 2,300 178 185 0
2018-04-17 13:04:53 GMT 50.926533 -0.756840 2,600 139 98 240
2018-04-17 13:04:43 GMT 50.934647 -0.763366 2,700 156 212 0
2018-04-17 13:04:29 GMT 50.946747 -0.771030 2,600 187 126 -300
2018-04-17 13:04:19 GMT 50.954487 -0.775326 2,600 162 274 0
2018-04-17 13:04:09 GMT 50.963486 -0.780835 2,600 161 189 0
2018-04-17 13:03:59 GMT 50.972355 -0.786113 2,700 163 170 0
2018-04-17 13:03:49 GMT 50.979401 -0.787885 2,700 199 161 180
2018-04-17 13:03:39 GMT 50.985119 -0.781012 2,600 30 75 0
2018-04-17 13:02:58 GMT 50.978352 -0.797461 2,800 204 107 240
2018-04-17 13:02:40 GMT 50.985409 -0.834122 2,100
2018-04-17 13:02:24 GMT 50.992809 -0.871201 1,900
2018-04-17 13:00:01 GMT 50.986618 -0.891190 2,100 204 107 240
2018-04-17 12:58:45 GMT 50.984737 -0.897708 3,000 204 107 240
2018-04-17 12:57:31 GMT 50.990055 -0.901729 2,900 232 128 240
2018-04-17 12:57:06 GMT 50.997292 -0.878703 1,900 329 212
2018-04-17 12:55:42 GMT 50.954082 -0.774675 2,400 329 212
2018-04-17 12:55:25 GMT 50.941170 -0.759613 2,500 312 213

Making use of Plane Finder data

You are free to use the raw flight data, aircraft information and images provided in this report for your own purposes provided the data is correctly attributed to Plane Finder. We ask that you please credit Plane Finder and link to planefinder.net in close proximity to the content.

Optionally one of the following logos (no smaller then 150x24px) can be used and must link to planefinder.net

Embedding the Plane Finder map

You are welcome to embed the Plane Finder playback map on your website to offer visitors a more interactive experience. We suggest using the following HTML code:

<iframe src="//planefinder.net/data/report/GILDA-G-ILDA-7700-squawk-2018-04-17/map" width="800" height="600" seamless="seamless"></iframe>

Where our data comes from

Plane Finder has a global network of data feeds and antenna radars that receive data broadcast directly from aircraft. The primary technologies used are ADS-B and MLAT. We also show feeds from the FAA and a FLARM glider feed.

Click here to find out more about the Plane Finder network.

How we collect our data